Saddlebrooke, Missouri
Current Conditions -  °F | °C
As of 3:55 PM on Sunday 25 Jan 2015 (Local Time) from KFWB Reporting Station
Broken Clouds Broken Clouds  
Wind Chill: 30°   Ceiling: 1700
Heat Index: 39°   Visibility: 10mi
Dew Point: 34°   Wind: 16mph
Humidity: 81%   Direction: 310°NW
Pressure: 29.88"   Gusts: 29mph
Location:  36.8569°N, 93.1213°W
Report Text: KFWB 252155Z AUTO 31014G25KT 10SM BKN017 04/01 A2988 RMK AO2
Loading
Personal Weather Stations






























Interactive Weather Map New forecast layout! Learn more

10-Day Weather Forecast

Advertisements
Track Severe Weather on mobile